Česky Dansk Deutsch English Español Suomi Français Magyar Italiano Nederlands norsk Polski Português svenska Türkçe

 

Het Weer

Yerevan (Armenië)

15:00, 1 November 2003 (GMT)

NWNNE
WE
SWSSE
Home            
Yerevan Kars Gyanca Airport Tbilisi Khoy Muhrani Van Erzurum Tabriz Mus Tur-Afb Orumieh Maragheh / Sahand Batman Nalchik Ardabil Trabzon Erzincan Mosul Kamishli Diyarbakir Saghez Mineral'Nye Vody Baku / Bine Airport

Om een weerknop op uw website of weblog te plaatsen, copieer onderstaande code en plak die in uw pagina. In het eerste vakje staat HTML-code, in het tweede vakje UBB-code.


Add to Google

Details

Wind speed:2 bf, 3.9 kn, 2 m/s, 4.5 miles/h, 7.2 km/h
Wind direction:NNE, 030°
Visibility:Greater than 10000 m, 10 km, 32800 ft, 6.2 miles
Clouds:Ein wenig bewölkt at 10000 ft, 3048 m
Aufgelockert bewölkt at 20000 ft, 6096 m
Temperature:8°C, 46°F
Dew-point:1°C, 34°F
Atmospheric pressure:1019 hPa, 764.3 mmHg, 30.09 inHg, 1.006 atm
Relative humidity:61.2 %
METAR:UGEE 011500Z 03002MPS 9999 FEW100 SCT200 08/01 Q1019 070 NOSIG

Snelkoppelingen

Actuele weersinformatie van de hele wereld. Voeg locaties toe met het plus (+) symbool. Deze snelkoppelingen kunnen worden toegevoegd aan Google.

Lid van de Technetium groep

website free tracking
StatCounter NetStat W3C Validator

09-08-2022 09:00:29
astro.technetium.be money.technetium.be phote.technetium.be tafeltennistafel.technetium.be www.ligfiets.net